Time;durP1;ratioP1;P1;durP2;ratioP2;P2;SDS_P1;SDS_P2;PMS_P1;PMS_P2;Temp;Humidity;BMP_temperature;BMP_pressure;BME280_temperature;BME280_humidity;BME280_pressure;Samples;Min_cycle;Max_cycle;Signal;HPM_P1;HPM_P2
2022/04/24 00:01:40;;;;;;;;;0.00;0.00;;;;;;;;5141996;27;8856;-72
2022/04/24 00:04:05;;;;;;;;;0.00;0.00;;;;;;;;5141662;27;8802;-72
2022/04/24 00:06:34;;;;;;;;;0.00;0.00;;;;;;;;5141720;27;8774;-72
2022/04/24 00:09:00;;;;;;;;;0.00;0.00;;;;;;;;5141568;27;8759;-72
2022/04/24 00:11:25;;;;;;;;;0.00;0.00;;;;;;;;5141378;27;11396;-72
2022/04/24 00:13:50;;;;;;;;;0.00;0.00;;;;;;;;5141541;27;8798;-73
2022/04/24 00:16:16;;;;;;;;;0.00;0.00;;;;;;;;5122676;27;9498;-73
2022/04/24 00:18:41;;;;;;;;;1.00;0.00;;;;;;;;5141220;27;8825;-71
2022/04/24 00:21:07;;;;;;;;;0.00;0.00;;;;;;;;5122288;27;9538;-72
2022/04/24 00:23:32;;;;;;;;;0.00;0.00;;;;;;;;5140873;27;8770;-71
2022/04/24 00:25:58;;;;;;;;;0.00;0.00;;;;;;;;5140798;27;8818;-72
2022/04/24 00:28:24;;;;;;;;;0.25;0.00;;;;;;;;5141806;27;8843;-72
2022/04/24 00:30:49;;;;;;;;;1.00;0.00;;;;;;;;5141191;27;8802;-73
2022/04/24 00:33:14;;;;;;;;;0.00;0.00;;;;;;;;5122536;27;10674;-72
2022/04/24 00:35:40;;;;;;;;;0.00;0.00;;;;;;;;5141245;27;8805;-72
2022/04/24 00:38:05;;;;;;;;;0.00;0.00;;;;;;;;5141454;27;8804;-71
2022/04/24 00:40:30;;;;;;;;;0.25;0.00;;;;;;;;5140899;27;8786;-72
2022/04/24 00:42:56;;;;;;;;;0.00;0.00;;;;;;;;5141097;27;8786;-73
2022/04/24 00:45:21;;;;;;;;;0.00;0.00;;;;;;;;5140528;27;8881;-73
2022/04/24 00:47:46;;;;;;;;;0.00;0.00;;;;;;;;5140354;27;8794;-72
2022/04/24 00:50:12;;;;;;;;;0.00;0.00;;;;;;;;5140437;27;8933;-72
2022/04/24 00:52:37;;;;;;;;;1.00;0.00;;;;;;;;5140198;27;8885;-72
2022/04/24 00:55:03;;;;;;;;;0.00;0.00;;;;;;;;5141188;27;9517;-72
2022/04/24 00:57:28;;;;;;;;;0.00;0.00;;;;;;;;5140990;27;8870;-73
2022/04/24 00:59:54;;;;;;;;;0.00;0.00;;;;;;;;5141099;27;8795;-73
2022/04/24 01:02:19;;;;;;;;;1.00;0.00;;;;;;;;5141812;27;8794;-71
2022/04/24 01:04:44;;;;;;;;;0.00;0.00;;;;;;;;5141071;27;8806;-72
2022/04/24 01:07:10;;;;;;;;;0.00;0.00;;;;;;;;5140638;27;8770;-72
2022/04/24 01:09:36;;;;;;;;;0.00;0.00;;;;;;;;5140462;27;8806;-71
2022/04/24 01:12:02;;;;;;;;;0.00;0.00;;;;;;;;5139979;27;8864;-72
2022/04/24 01:14:28;;;;;;;;;0.00;0.00;;;;;;;;5139948;27;8821;-72
2022/04/24 01:16:54;;;;;;;;;0.00;0.00;;;;;;;;5141226;27;8781;-72
2022/04/24 01:19:19;;;;;;;;;0.25;0.00;;;;;;;;5140465;27;11391;-72
2022/04/24 01:21:45;;;;;;;;;0.00;0.00;;;;;;;;5139972;27;8814;-73
2022/04/24 01:24:11;;;;;;;;;0.00;0.00;;;;;;;;5140239;27;8793;-72
2022/04/24 01:26:36;;;;;;;;;1.00;1.00;;;;;;;;5121328;27;8905;-72
2022/04/24 01:29:03;;;;;;;;;0.00;0.00;;;;;;;;5139521;27;8801;-73
2022/04/24 01:31:28;;;;;;;;;0.00;0.00;;;;;;;;5140540;27;8801;-72
2022/04/24 01:33:53;;;;;;;;;1.00;0.00;;;;;;;;5140193;27;11376;-72
2022/04/24 01:36:19;;;;;;;;;0.00;0.00;;;;;;;;5140117;27;8762;-73
2022/04/24 01:38:44;;;;;;;;;0.00;0.00;;;;;;;;5140203;27;8902;-72
2022/04/24 01:41:09;;;;;;;;;0.00;0.00;;;;;;;;5140324;27;8782;-72
2022/04/24 01:43:37;;;;;;;;;0.00;0.00;;;;;;;;5139940;27;8766;-73
2022/04/24 01:46:06;;;;;;;;;0.00;0.00;;;;;;;;5140469;27;8793;-72
2022/04/24 01:48:33;;;;;;;;;0.75;0.00;;;;;;;;5139647;27;11378;-72
2022/04/24 01:50:59;;;;;;;;;0.00;0.00;;;;;;;;5120517;27;11652;-72
2022/04/24 01:53:24;;;;;;;;;0.00;0.00;;;;;;;;5139849;27;11547;-72
2022/04/24 01:55:49;;;;;;;;;0.00;0.00;;;;;;;;5139763;27;8770;-71
2022/04/24 01:58:14;;;;;;;;;1.00;0.00;;;;;;;;5139904;27;8904;-73
2022/04/24 02:00:40;;;;;;;;;0.00;0.00;;;;;;;;5120715;27;8802;-72
2022/04/24 02:03:05;;;;;;;;;0.00;0.00;;;;;;;;5139584;27;8782;-72
2022/04/24 02:05:30;;;;;;;;;0.00;0.00;;;;;;;;5139725;27;8804;-72
2022/04/24 02:07:56;;;;;;;;;0.00;0.00;;;;;;;;5139613;27;8846;-72
2022/04/24 02:10:21;;;;;;;;;0.00;0.00;;;;;;;;5139331;27;8908;-72
2022/04/24 02:12:46;;;;;;;;;0.00;0.00;;;;;;;;5142529;27;8802;-72
2022/04/24 02:15:12;;;;;;;;;0.00;0.00;;;;;;;;5143732;27;9514;-72
2022/04/24 02:17:37;;;;;;;;;1.00;0.00;;;;;;;;5143737;27;8782;-72
2022/04/24 02:20:03;;;;;;;;;1.75;0.00;;;;;;;;5143264;27;8790;-73
2022/04/24 02:22:32;;;;;;;;;0.00;0.00;;;;;;;;5143495;27;8758;-74
2022/04/24 02:24:58;;;;;;;;;0.00;0.00;;;;;;;;5143151;27;12099;-73
2022/04/24 02:27:23;;;;;;;;;0.00;0.00;;;;;;;;5143300;27;11393;-72
2022/04/24 02:29:48;;;;;;;;;0.00;0.00;;;;;;;;5143018;27;8857;-72
2022/04/24 02:32:13;;;;;;;;;0.00;0.00;;;;;;;;5143310;27;8782;-72
2022/04/24 02:34:39;;;;;;;;;0.00;0.00;;;;;;;;5143187;27;8885;-72
2022/04/24 02:37:04;;;;;;;;;1.00;0.00;;;;;;;;5143172;27;8762;-71
2022/04/24 02:39:29;;;;;;;;;0.00;0.00;;;;;;;;5142488;27;9513;-72
2022/04/24 02:41:55;;;;;;;;;1.00;1.00;;;;;;;;5142562;27;8853;-72
2022/04/24 02:44:20;;;;;;;;;1.00;0.00;;;;;;;;5142391;27;8774;-71
2022/04/24 02:46:45;;;;;;;;;0.25;0.00;;;;;;;;5142719;27;8770;-72
2022/04/24 02:49:11;;;;;;;;;0.00;0.00;;;;;;;;5143572;27;8944;-72
2022/04/24 02:51:36;;;;;;;;;0.00;0.00;;;;;;;;5142505;27;8794;-71
2022/04/24 02:54:01;;;;;;;;;0.00;0.00;;;;;;;;5143364;27;8893;-73
2022/04/24 02:56:26;;;;;;;;;0.00;0.00;;;;;;;;5143116;27;8933;-73
2022/04/24 02:58:52;;;;;;;;;0.00;0.00;;;;;;;;5143354;27;8790;-72
2022/04/24 03:01:18;;;;;;;;;1.50;0.00;;;;;;;;5143451;27;8806;-72
2022/04/24 03:03:45;;;;;;;;;1.00;0.00;;;;;;;;5124066;27;9483;-73
2022/04/24 03:06:10;;;;;;;;;0.00;0.00;;;;;;;;5142159;27;12157;-72
2022/04/24 03:08:35;;;;;;;;;0.00;0.00;;;;;;;;5142860;27;11398;-72
2022/04/24 03:11:01;;;;;;;;;0.25;0.25;;;;;;;;5143121;27;9060;-72
2022/04/24 03:13:26;;;;;;;;;1.00;0.00;;;;;;;;5142750;27;8782;-72
2022/04/24 03:15:51;;;;;;;;;0.00;0.00;;;;;;;;5142707;27;11263;-72
2022/04/24 03:18:17;;;;;;;;;0.00;0.00;;;;;;;;5142306;27;8802;-72
2022/04/24 03:20:44;;;;;;;;;0.00;0.00;;;;;;;;5142254;27;9498;-72
2022/04/24 03:23:09;;;;;;;;;2.25;0.00;;;;;;;;5122684;27;8778;-71
2022/04/24 03:25:34;;;;;;;;;0.00;0.00;;;;;;;;5141871;27;11582;-72
2022/04/24 03:28:00;;;;;;;;;0.00;0.00;;;;;;;;5141890;27;8782;-72
2022/04/24 03:30:25;;;;;;;;;0.75;0.00;;;;;;;;5142640;27;8818;-73
2022/04/24 03:32:50;;;;;;;;;0.00;0.00;;;;;;;;5142417;27;8794;-72
2022/04/24 03:35:15;;;;;;;;;0.00;0.00;;;;;;;;5142094;27;8885;-72
2022/04/24 03:37:42;;;;;;;;;1.50;0.75;;;;;;;;5142618;27;8916;-72
2022/04/24 03:40:08;;;;;;;;;0.00;0.00;;;;;;;;5141850;27;11364;-72
2022/04/24 03:42:35;;;;;;;;;1.00;1.00;;;;;;;;5141287;27;11480;-72
2022/04/24 03:45:01;;;;;;;;;1.25;1.00;;;;;;;;5142060;27;11406;-72
2022/04/24 03:47:27;;;;;;;;;2.00;1.00;;;;;;;;5122926;27;11423;-73
2022/04/24 03:49:52;;;;;;;;;0.00;0.00;;;;;;;;5141059;27;11460;-73
2022/04/24 03:52:17;;;;;;;;;2.00;0.50;;;;;;;;5122792;27;10630;-72
2022/04/24 03:54:43;;;;;;;;;0.00;0.00;;;;;;;;5140904;27;11285;-72
2022/04/24 03:57:09;;;;;;;;;0.00;0.00;;;;;;;;5141890;27;11603;-71
2022/04/24 03:59:34;;;;;;;;;0.00;0.00;;;;;;;;5141368;27;11514;-72
2022/04/24 04:02:00;;;;;;;;;0.00;0.00;;;;;;;;5142049;27;9518;-72
2022/04/24 04:04:26;;;;;;;;;0.50;0.50;;;;;;;;5123407;27;8840;-73
2022/04/24 04:06:52;;;;;;;;;1.00;0.00;;;;;;;;5141567;27;11451;-72
2022/04/24 04:09:17;;;;;;;;;0.00;0.00;;;;;;;;5141372;27;11832;-72
2022/04/24 04:11:42;;;;;;;;;0.50;0.00;;;;;;;;5141226;27;8928;-72
2022/04/24 04:14:07;;;;;;;;;1.00;0.00;;;;;;;;5141261;27;8782;-73
2022/04/24 04:16:33;;;;;;;;;0.00;0.00;;;;;;;;5141499;27;9122;-72
2022/04/24 04:18:58;;;;;;;;;0.00;0.00;;;;;;;;5140940;27;8763;-73
2022/04/24 04:21:24;;;;;;;;;0.50;0.00;;;;;;;;5141678;27;8826;-73
2022/04/24 04:23:50;;;;;;;;;1.00;0.00;;;;;;;;5141456;27;8793;-75
2022/04/24 04:26:17;;;;;;;;;0.00;0.00;;;;;;;;5141478;27;8838;-72
2022/04/24 04:28:43;;;;;;;;;0.00;0.00;;;;;;;;5140829;27;8767;-72
2022/04/24 04:31:08;;;;;;;;;1.00;0.00;;;;;;;;5140926;27;11522;-71
2022/04/24 04:33:34;;;;;;;;;0.00;0.00;;;;;;;;5141358;27;11596;-71
2022/04/24 04:35:59;;;;;;;;;0.00;0.00;;;;;;;;5140212;27;8817;-70
2022/04/24 04:38:25;;;;;;;;;0.00;0.00;;;;;;;;5141315;27;8790;-71
2022/04/24 04:40:50;;;;;;;;;0.00;0.00;;;;;;;;5141508;27;8796;-70
2022/04/24 04:43:15;;;;;;;;;0.00;0.00;;;;;;;;5141465;27;8783;-71
2022/04/24 04:45:40;;;;;;;;;0.00;0.00;;;;;;;;5140873;27;8786;-69
2022/04/24 04:48:06;;;;;;;;;0.00;0.00;;;;;;;;5150616;27;8795;-69
2022/04/24 04:50:32;;;;;;;;;0.50;0.00;;;;;;;;5150063;27;8818;-70
2022/04/24 04:52:57;;;;;;;;;2.00;0.00;;;;;;;;5147907;27;8796;-70
2022/04/24 04:55:23;;;;;;;;;2.00;0.00;;;;;;;;5147553;27;12819;-70
2022/04/24 04:57:48;;;;;;;;;0.00;0.00;;;;;;;;5147742;27;9502;-69
2022/04/24 05:00:13;;;;;;;;;2.00;0.00;;;;;;;;5150357;27;8796;-70
2022/04/24 05:02:40;;;;;;;;;0.00;0.00;;;;;;;;5149142;27;8805;-70
2022/04/24 05:05:06;;;;;;;;;0.00;0.00;;;;;;;;5131075;27;8803;-70
2022/04/24 05:07:31;;;;;;;;;0.25;0.00;;;;;;;;5150412;27;11412;-70
2022/04/24 05:09:56;;;;;;;;;0.50;0.25;;;;;;;;5147931;27;8794;-70
2022/04/24 05:12:27;;;;;;;;;3.00;0.00;;;;;;;;5150739;27;8860;-70
2022/04/24 05:14:53;;;;;;;;;1.00;1.00;;;;;;;;5147699;27;11764;-69
2022/04/24 05:17:18;;;;;;;;;0.00;0.00;;;;;;;;5150164;27;11417;-69
2022/04/24 05:19:44;;;;;;;;;0.00;0.00;;;;;;;;5149542;27;9492;-70
2022/04/24 05:22:09;;;;;;;;;0.00;0.00;;;;;;;;5151567;27;8812;-71
2022/04/24 05:24:34;;;;;;;;;2.00;0.00;;;;;;;;5149905;27;8813;-70
2022/04/24 05:27:01;;;;;;;;;0.00;0.00;;;;;;;;5149364;27;8906;-70
2022/04/24 05:29:27;;;;;;;;;0.00;0.00;;;;;;;;5148951;27;8822;-71
2022/04/24 05:31:52;;;;;;;;;0.00;0.00;;;;;;;;5148409;27;11445;-71
2022/04/24 05:34:17;;;;;;;;;0.00;0.00;;;;;;;;5151982;27;9557;-70
2022/04/24 05:36:42;;;;;;;;;1.25;0.25;;;;;;;;5150216;27;8823;-69
2022/04/24 05:39:08;;;;;;;;;1.00;1.00;;;;;;;;5147981;27;11302;-70
2022/04/24 05:41:33;;;;;;;;;2.25;0.75;;;;;;;;5149240;27;10705;-70
2022/04/24 05:43:58;;;;;;;;;0.00;0.00;;;;;;;;5150391;27;11317;-69
2022/04/24 05:46:23;;;;;;;;;1.00;1.00;;;;;;;;5151039;27;11258;-74
2022/04/24 05:48:49;;;;;;;;;0.00;0.00;;;;;;;;5131137;27;8820;-72
2022/04/24 05:51:14;;;;;;;;;1.75;0.50;;;;;;;;5148692;27;8930;-72
2022/04/24 05:53:40;;;;;;;;;0.00;0.00;;;;;;;;5127266;27;12860;-76
2022/04/24 05:56:05;;;;;;;;;0.00;0.00;;;;;;;;5140812;27;11344;-82
2022/04/24 05:58:30;;;;;;;;;1.00;0.00;;;;;;;;5140556;27;8833;-74
2022/04/24 06:00:55;;;;;;;;;2.75;1.75;;;;;;;;5140123;27;8798;-74
2022/04/24 06:03:21;;;;;;;;;0.00;0.00;;;;;;;;5140317;27;11298;-73
2022/04/24 06:05:47;;;;;;;;;0.00;0.00;;;;;;;;5139596;27;11351;-74
2022/04/24 06:08:13;;;;;;;;;0.00;0.00;;;;;;;;5129054;27;8806;-73
2022/04/24 06:10:38;;;;;;;;;3.00;1.00;;;;;;;;5148952;27;11460;-73
2022/04/24 06:13:03;;;;;;;;;0.00;0.00;;;;;;;;5149574;27;8798;-73
2022/04/24 06:15:29;;;;;;;;;1.75;0.00;;;;;;;;5149604;27;8908;-73
2022/04/24 06:17:57;;;;;;;;;0.75;0.25;;;;;;;;5149169;27;8821;-71
2022/04/24 06:20:22;;;;;;;;;2.00;0.25;;;;;;;;5146606;27;13096;-72
2022/04/24 06:22:47;;;;;;;;;1.00;1.00;;;;;;;;5148783;27;11504;-70
2022/04/24 06:25:17;;;;;;;;;0.00;0.00;;;;;;;;5148636;27;11642;-71
2022/04/24 06:27:42;;;;;;;;;2.75;1.00;;;;;;;;5144664;27;9030;-73
2022/04/24 06:30:08;;;;;;;;;1.00;1.00;;;;;;;;5138978;27;11408;-74
2022/04/24 06:32:38;;;;;;;;;1.00;1.00;;;;;;;;5144637;27;8835;-74
2022/04/24 06:35:04;;;;;;;;;0.00;0.00;;;;;;;;5148678;27;9611;-73
2022/04/24 06:37:29;;;;;;;;;2.00;1.00;;;;;;;;5147822;27;12073;-72
2022/04/24 06:39:54;;;;;;;;;0.00;0.00;;;;;;;;5149505;27;9124;-72
2022/04/24 06:42:20;;;;;;;;;1.00;1.00;;;;;;;;5147592;27;8829;-72
2022/04/24 06:44:46;;;;;;;;;0.00;0.00;;;;;;;;5147072;27;8887;-72
2022/04/24 06:47:11;;;;;;;;;2.50;1.50;;;;;;;;5133169;27;11081;-70
2022/04/24 06:49:36;;;;;;;;;1.25;0.25;;;;;;;;5146247;27;11646;-71
2022/04/24 06:52:01;;;;;;;;;1.75;1.00;;;;;;;;5147943;27;12991;-71
2022/04/24 06:54:27;;;;;;;;;3.50;0.00;;;;;;;;5147885;27;10540;-71
2022/04/24 06:56:52;;;;;;;;;0.25;0.00;;;;;;;;5148429;27;10281;-69
2022/04/24 06:59:17;;;;;;;;;2.00;1.00;;;;;;;;5149463;27;8778;-72
2022/04/24 07:01:42;;;;;;;;;0.00;0.00;;;;;;;;5149063;27;11646;-71
2022/04/24 07:04:08;;;;;;;;;1.00;1.00;;;;;;;;5143942;27;8762;-70
2022/04/24 07:06:33;;;;;;;;;0.50;0.00;;;;;;;;5156321;27;8984;-70
2022/04/24 07:08:58;;;;;;;;;4.00;1.25;;;;;;;;5162693;27;10811;-69
2022/04/24 07:11:24;;;;;;;;;0.50;0.50;;;;;;;;5162665;27;11659;-68
2022/04/24 07:13:49;;;;;;;;;1.00;1.00;;;;;;;;5162899;27;11815;-70
2022/04/24 07:16:14;;;;;;;;;0.00;0.00;;;;;;;;5161041;27;11299;-70
2022/04/24 07:18:40;;;;;;;;;6.25;0.00;;;;;;;;5150535;27;8950;-69
2022/04/24 07:21:06;;;;;;;;;0.50;0.25;;;;;;;;5152515;27;8822;-69
2022/04/24 07:23:31;;;;;;;;;3.75;3.75;;;;;;;;5141992;27;10958;-71
2022/04/24 07:25:58;;;;;;;;;1.75;1.00;;;;;;;;5142100;27;11458;-70
2022/04/24 07:28:24;;;;;;;;;0.00;0.00;;;;;;;;5141755;27;11552;-69
2022/04/24 07:30:49;;;;;;;;;0.25;0.00;;;;;;;;5140863;27;11414;-69
2022/04/24 07:33:14;;;;;;;;;0.00;0.00;;;;;;;;5141826;27;8794;-72
2022/04/24 07:35:41;;;;;;;;;0.00;0.00;;;;;;;;5141735;27;8792;-69
2022/04/24 07:38:06;;;;;;;;;0.25;0.25;;;;;;;;5142000;27;8902;-69
2022/04/24 07:40:32;;;;;;;;;1.25;0.25;;;;;;;;5141517;27;11405;-68
2022/04/24 07:42:59;;;;;;;;;0.00;0.00;;;;;;;;5141212;27;8843;-71
2022/04/24 07:45:24;;;;;;;;;0.00;0.00;;;;;;;;5140393;27;11396;-72
2022/04/24 07:47:50;;;;;;;;;0.50;0.00;;;;;;;;5142381;27;11391;-69
2022/04/24 07:50:16;;;;;;;;;0.75;0.25;;;;;;;;5141236;27;9053;-70
2022/04/24 07:52:41;;;;;;;;;0.00;0.00;;;;;;;;5146385;27;8870;-71
2022/04/24 07:55:07;;;;;;;;;2.00;0.25;;;;;;;;5160219;22;11525;-67
2022/04/24 07:57:32;;;;;;;;;1.50;0.00;;;;;;;;5130297;27;11352;-68
2022/04/24 07:59:58;;;;;;;;;1.00;0.50;;;;;;;;5128257;27;12694;-69
2022/04/24 08:02:23;;;;;;;;;0.00;0.00;;;;;;;;5128930;27;8839;-68
2022/04/24 08:04:48;;;;;;;;;1.75;1.00;;;;;;;;5128117;27;11410;-69
2022/04/24 08:07:15;;;;;;;;;2.00;1.00;;;;;;;;5124923;27;11740;-69
2022/04/24 08:09:41;;;;;;;;;2.00;0.00;;;;;;;;5130944;27;8837;-71
2022/04/24 08:12:07;;;;;;;;;1.00;0.00;;;;;;;;5141273;27;11398;-68
2022/04/24 08:14:32;;;;;;;;;0.00;0.00;;;;;;;;5139253;27;12116;-69
2022/04/24 08:16:57;;;;;;;;;0.75;0.00;;;;;;;;5141053;27;8800;-68
2022/04/24 08:19:23;;;;;;;;;0.25;0.25;;;;;;;;5139289;27;8800;-67
2022/04/24 08:21:48;;;;;;;;;0.00;0.00;;;;;;;;5140680;27;8796;-69
2022/04/24 08:24:13;;;;;;;;;1.00;1.00;;;;;;;;5141231;27;8917;-69
2022/04/24 08:26:38;;;;;;;;;1.00;1.00;;;;;;;;5140344;27;9496;-67
2022/04/24 08:31:07;;;;;;;;;1.25;0.00;;;;;;;;5194604;27;88004;-70
2022/04/24 08:33:32;;;;;;;;;1.75;1.00;;;;;;;;5177813;27;20493;-71
2022/04/24 08:35:58;;;;;;;;;2.00;1.00;;;;;;;;5178465;27;8821;-83
2022/04/24 08:38:23;;;;;;;;;1.00;1.00;;;;;;;;5176659;27;8981;-72
2022/04/24 08:40:50;;;;;;;;;2.25;1.00;;;;;;;;5178090;27;8864;-69
2022/04/24 08:43:15;;;;;;;;;1.00;0.75;;;;;;;;5178003;27;9372;-72
2022/04/24 08:45:42;;;;;;;;;3.00;1.00;;;;;;;;5177821;27;11581;-72
2022/04/24 08:48:07;;;;;;;;;2.00;1.00;;;;;;;;5178350;27;11363;-72
2022/04/24 08:50:33;;;;;;;;;1.00;1.00;;;;;;;;5178361;27;11360;-72
2022/04/24 08:52:58;;;;;;;;;4.00;1.00;;;;;;;;5178545;27;8785;-72
2022/04/24 08:55:28;;;;;;;;;0.75;0.75;;;;;;;;5178013;27;8797;-70
2022/04/24 08:57:53;;;;;;;;;1.50;0.25;;;;;;;;5178232;27;11606;-72
2022/04/24 09:00:19;;;;;;;;;0.00;0.00;;;;;;;;5177864;27;11393;-69
2022/04/24 09:02:46;;;;;;;;;0.00;0.00;;;;;;;;5168750;27;11776;-70
2022/04/24 09:05:11;;;;;;;;;2.75;1.00;;;;;;;;5176520;27;11435;-68
2022/04/24 09:07:37;;;;;;;;;1.25;0.00;;;;;;;;5155461;27;11443;-71
2022/04/24 09:10:04;;;;;;;;;1.00;1.00;;;;;;;;5155870;27;10022;-71
2022/04/24 09:12:30;;;;;;;;;2.00;0.00;;;;;;;;5156971;27;11372;-71
2022/04/24 09:14:58;;;;;;;;;1.00;1.00;;;;;;;;5156862;27;12245;-72
2022/04/24 09:17:25;;;;;;;;;1.25;0.25;;;;;;;;5156760;27;9523;-70
2022/04/24 09:19:51;;;;;;;;;1.50;1.00;;;;;;;;5163808;27;12898;-70
2022/04/24 09:22:16;;;;;;;;;5.00;3.50;;;;;;;;5177094;27;11425;-68
2022/04/24 09:24:42;;;;;;;;;0.00;0.00;;;;;;;;5178040;27;12586;-68
2022/04/24 09:27:08;;;;;;;;;0.75;0.75;;;;;;;;5177971;27;11536;-68
2022/04/24 09:29:33;;;;;;;;;2.00;2.00;;;;;;;;5177418;27;9258;-68
2022/04/24 09:31:59;;;;;;;;;4.00;3.00;;;;;;;;5177549;27;11436;-69
2022/04/24 09:34:28;;;;;;;;;2.00;1.00;;;;;;;;5177949;27;8804;-67
2022/04/24 09:37:02;;;;;;;;;2.25;1.00;;;;;;;;5177809;27;8785;-69
2022/04/24 09:39:27;;;;;;;;;1.50;1.00;;;;;;;;5176950;27;11411;-68
2022/04/24 09:42:05;;;;;;;;;0.00;0.00;;;;;;;;5164771;27;11448;-69
2022/04/24 09:44:44;;;;;;;;;2.00;1.00;;;;;;;;5161646;27;10699;-70
2022/04/24 09:47:09;;;;;;;;;1.00;1.00;;;;;;;;5160527;27;11385;-69
2022/04/24 09:49:37;;;;;;;;;3.00;0.25;;;;;;;;5163775;27;11478;-70
2022/04/24 09:52:03;;;;;;;;;1.00;1.00;;;;;;;;5151811;27;11620;-69
2022/04/24 09:54:29;;;;;;;;;2.25;1.00;;;;;;;;5156865;27;11467;-70
2022/04/24 09:56:56;;;;;;;;;2.00;0.50;;;;;;;;5163180;27;9150;-69
2022/04/24 09:59:22;;;;;;;;;2.25;1.00;;;;;;;;5162612;27;11439;-70
2022/04/24 10:01:47;;;;;;;;;1.00;1.00;;;;;;;;5163079;27;11467;-70
2022/04/24 10:04:13;;;;;;;;;2.75;1.00;;;;;;;;5162817;27;12114;-67
2022/04/24 10:06:40;;;;;;;;;1.25;0.00;;;;;;;;5159691;27;8810;-68
2022/04/24 10:09:08;;;;;;;;;0.00;0.00;;;;;;;;5162206;27;9499;-69
2022/04/24 10:12:09;;;;;;;;;0.00;0.00;;;;;;;;5019420;27;3795588;-70
2022/04/24 10:14:41;;;;;;;;;0.00;0.00;;;;;;;;5138211;27;21182;-70
2022/04/24 10:17:26;;;;;;;;;2.00;0.00;;;;;;;;5157923;27;11373;-68
2022/04/24 10:19:57;;;;;;;;;3.00;3.00;;;;;;;;5157043;27;11328;-70
2022/04/24 10:22:44;;;;;;;;;32.25;31.25;;;;;;;;5138197;27;11606;-71
2022/04/24 10:25:09;;;;;;;;;2.00;1.00;;;;;;;;5156754;27;22610;-70
2022/04/24 10:27:36;;;;;;;;;3.00;3.00;;;;;;;;5156938;27;22856;-71
2022/04/24 10:30:02;;;;;;;;;8.25;2.00;;;;;;;;5160063;27;8890;-70
2022/04/24 10:32:30;;;;;;;;;1.00;1.00;;;;;;;;5164552;27;11417;-71
2022/04/24 10:34:55;;;;;;;;;1.00;1.00;;;;;;;;5170962;27;11480;-69
2022/04/24 10:37:25;;;;;;;;;0.00;0.00;;;;;;;;5166660;27;11407;-71
2022/04/24 10:39:54;;;;;;;;;2.00;0.00;;;;;;;;5166430;27;8788;-70
2022/04/24 10:42:28;;;;;;;;;0.00;0.00;;;;;;;;5165412;27;11396;-71
2022/04/24 10:44:57;;;;;;;;;0.00;0.00;;;;;;;;5167671;27;11514;-70
2022/04/24 10:47:23;;;;;;;;;0.00;0.00;;;;;;;;5166931;27;11433;-70
2022/04/24 10:49:48;;;;;;;;;0.75;0.00;;;;;;;;5166692;27;11388;-70
2022/04/24 10:52:13;;;;;;;;;0.00;0.00;;;;;;;;5165583;27;8798;-70
2022/04/24 10:54:40;;;;;;;;;1.25;1.00;;;;;;;;5164773;27;8875;-70
2022/04/24 10:57:16;;;;;;;;;1.75;1.00;;;;;;;;5175206;27;10339;-70
2022/04/24 10:59:48;;;;;;;;;1.00;1.00;;;;;;;;5165078;27;11389;-71
2022/04/24 11:02:18;;;;;;;;;0.50;0.50;;;;;;;;5164211;27;11411;-71
2022/04/24 11:04:44;;;;;;;;;0.25;0.25;;;;;;;;5164870;27;11697;-71
2022/04/24 11:07:18;;;;;;;;;0.75;0.75;;;;;;;;5165973;27;11411;-71
2022/04/24 11:09:43;;;;;;;;;2.00;0.75;;;;;;;;5164950;27;9815;-71
2022/04/24 11:12:10;;;;;;;;;0.50;0.50;;;;;;;;5166053;27;11472;-70
2022/04/24 11:14:37;;;;;;;;;0.50;0.50;;;;;;;;5156521;27;13238;-69
2022/04/24 11:17:04;;;;;;;;;1.00;1.00;;;;;;;;5156426;27;11405;-69
2022/04/24 11:19:30;;;;;;;;;1.75;0.25;;;;;;;;5156157;27;11676;-69
2022/04/24 11:21:57;;;;;;;;;2.00;1.00;;;;;;;;5151476;27;12115;-72
2022/04/24 11:24:26;;;;;;;;;1.00;1.00;;;;;;;;5141774;27;11865;-70
2022/04/24 11:26:52;;;;;;;;;1.00;1.00;;;;;;;;5141856;27;11343;-70
2022/04/24 11:29:18;;;;;;;;;4.75;4.75;;;;;;;;5156081;27;11401;-69
2022/04/24 11:31:52;;;;;;;;;6.50;4.75;;;;;;;;5151791;27;11419;-72
2022/04/24 11:34:18;;;;;;;;;11.75;10.75;;;;;;;;5151852;27;11377;-70
2022/04/24 11:36:44;;;;;;;;;5.00;4.00;;;;;;;;5149374;27;22300;-71
2022/04/24 11:39:09;;;;;;;;;2.50;2.50;;;;;;;;5151439;27;22158;-70
2022/04/24 11:41:35;;;;;;;;;1.50;0.00;;;;;;;;5131489;27;12566;-74
2022/04/24 11:44:01;;;;;;;;;0.00;0.00;;;;;;;;5149121;27;11508;-73
2022/04/24 11:51:54;;;;;;;;;2.25;1.00;;;;;;;;5150381;27;11361;-68
2022/04/24 11:54:20;;;;;;;;;1.00;1.00;;;;;;;;5149776;27;11521;-68
2022/04/24 11:56:50;;;;;;;;;1.00;1.00;;;;;;;;5151411;27;10397;-69
2022/04/24 11:59:16;;;;;;;;;1.75;1.00;;;;;;;;5150577;27;8774;-68
2022/04/24 12:01:43;;;;;;;;;2.00;2.00;;;;;;;;5149474;27;11399;-68
2022/04/24 12:04:15;;;;;;;;;1.75;1.00;;;;;;;;5155076;27;11397;-71
2022/04/24 12:06:40;;;;;;;;;1.75;1.00;;;;;;;;5162240;27;11317;-70
2022/04/24 12:09:07;;;;;;;;;1.00;1.00;;;;;;;;5162468;27;11328;-71
2022/04/24 12:11:32;;;;;;;;;0.75;0.75;;;;;;;;5162009;27;8929;-70
2022/04/24 12:14:05;;;;;;;;;1.00;0.00;;;;;;;;5151282;27;11499;-70
2022/04/24 12:16:30;;;;;;;;;2.75;2.00;;;;;;;;5149410;27;11544;-69
2022/04/24 12:18:57;;;;;;;;;1.25;1.00;;;;;;;;5150018;27;11538;-69
2022/04/24 12:21:23;;;;;;;;;1.00;1.00;;;;;;;;5151853;27;10076;-70
2022/04/24 12:23:49;;;;;;;;;0.75;0.75;;;;;;;;5151082;27;11368;-69
2022/04/24 12:26:14;;;;;;;;;2.00;2.00;;;;;;;;5147836;27;11552;-70
2022/04/24 12:28:39;;;;;;;;;1.00;1.00;;;;;;;;5150778;27;11441;-70
2022/04/24 12:31:06;;;;;;;;;1.00;1.00;;;;;;;;5149018;27;8778;-70
2022/04/24 12:33:32;;;;;;;;;1.00;0.75;;;;;;;;5151501;27;8784;-69
2022/04/24 12:36:08;;;;;;;;;2.75;2.00;;;;;;;;5149874;27;11432;-69
2022/04/24 12:38:33;;;;;;;;;3.00;1.50;;;;;;;;5149940;27;11939;-69
2022/04/24 12:41:02;;;;;;;;;0.00;0.00;;;;;;;;5150042;27;11527;-69
2022/04/24 12:43:28;;;;;;;;;2.00;1.00;;;;;;;;5151176;27;11344;-70
2022/04/24 12:45:55;;;;;;;;;1.00;1.00;;;;;;;;5150852;27;11359;-70
2022/04/24 12:48:20;;;;;;;;;0.00;0.00;;;;;;;;5149359;27;11426;-69
2022/04/24 12:50:45;;;;;;;;;0.50;0.50;;;;;;;;5151819;27;11392;-70
2022/04/24 12:53:11;;;;;;;;;1.00;0.00;;;;;;;;5151773;27;8814;-71
2022/04/24 12:55:36;;;;;;;;;1.00;1.00;;;;;;;;5151382;27;11609;-73
2022/04/24 12:58:01;;;;;;;;;1.75;1.75;;;;;;;;5154761;27;8834;-77
2022/04/24 13:00:28;;;;;;;;;0.75;0.75;;;;;;;;5150815;27;8895;-75
2022/04/24 13:02:53;;;;;;;;;2.25;0.00;;;;;;;;5151955;27;8792;-77
2022/04/24 13:05:19;;;;;;;;;2.00;2.00;;;;;;;;5132866;27;13348;-74
2022/04/24 13:07:44;;;;;;;;;1.00;1.00;;;;;;;;5133080;27;11695;-73
2022/04/24 13:10:11;;;;;;;;;0.50;0.50;;;;;;;;5149970;27;8861;-73
2022/04/24 13:12:36;;;;;;;;;0.00;0.00;;;;;;;;5153034;27;11403;-76
2022/04/24 13:15:01;;;;;;;;;0.00;0.00;;;;;;;;5151654;27;11412;-71
2022/04/24 13:20:10;;;;;;;;;0.25;0.00;;;;;;;;5150765;27;11307;-71
2022/04/24 13:22:36;;;;;;;;;1.00;1.00;;;;;;;;5161565;27;11475;-71
2022/04/24 13:25:01;;;;;;;;;1.00;1.00;;;;;;;;5161569;27;10488;-73
2022/04/24 13:27:26;;;;;;;;;0.00;0.00;;;;;;;;5161898;27;8780;-72
2022/04/24 13:29:51;;;;;;;;;1.00;1.00;;;;;;;;5161246;27;8779;-73
2022/04/24 13:32:17;;;;;;;;;2.00;2.00;;;;;;;;5161075;27;8775;-73
2022/04/24 13:34:42;;;;;;;;;1.25;1.25;;;;;;;;5142012;27;10312;-73
2022/04/24 13:39:52;;;;;;;;;1.00;1.00;;;;;;;;5160821;27;8837;-72
2022/04/24 13:42:17;;;;;;;;;1.00;1.00;;;;;;;;5142090;27;12288;-72
2022/04/24 13:44:43;;;;;;;;;1.00;1.00;;;;;;;;5141906;27;8811;-71
2022/04/24 13:47:09;;;;;;;;;0.00;0.00;;;;;;;;5142732;27;8803;-73
2022/04/24 13:49:35;;;;;;;;;2.00;1.00;;;;;;;;5161559;27;11429;-72
2022/04/24 13:52:01;;;;;;;;;2.75;0.75;;;;;;;;5161257;27;8820;-72
2022/04/24 13:54:27;;;;;;;;;1.00;1.00;;;;;;;;5142398;27;10801;-73
2022/04/24 13:56:56;;;;;;;;;0.50;0.50;;;;;;;;5141787;27;14246;-71
2022/04/24 13:59:22;;;;;;;;;3.50;1.75;;;;;;;;5161557;27;11932;-71
2022/04/24 14:01:47;;;;;;;;;1.75;1.75;;;;;;;;5161030;27;12152;-74
2022/04/24 14:04:12;;;;;;;;;3.00;2.00;;;;;;;;5156902;27;8991;-73
2022/04/24 14:06:38;;;;;;;;;3.25;2.00;;;;;;;;5153816;27;11320;-72
2022/04/24 14:09:03;;;;;;;;;2.00;1.00;;;;;;;;5138262;27;8826;-73
2022/04/24 14:11:28;;;;;;;;;1.00;1.00;;;;;;;;5141594;27;11443;-72
2022/04/24 14:13:54;;;;;;;;;1.75;1.00;;;;;;;;5149579;27;8819;-73
2022/04/24 14:16:20;;;;;;;;;2.75;1.25;;;;;;;;5139379;27;8867;-73
2022/04/24 14:18:45;;;;;;;;;0.75;0.75;;;;;;;;5138627;27;11392;-72
2022/04/24 14:21:10;;;;;;;;;2.00;1.00;;;;;;;;5139342;27;10264;-73
2022/04/24 14:23:36;;;;;;;;;2.00;2.00;;;;;;;;5140254;27;11433;-72
2022/04/24 14:26:01;;;;;;;;;2.00;2.00;;;;;;;;5139982;27;8782;-71
2022/04/24 14:28:27;;;;;;;;;1.00;1.00;;;;;;;;5140592;27;8778;-72
2022/04/24 14:30:53;;;;;;;;;1.00;1.00;;;;;;;;5139967;27;9132;-72
2022/04/24 14:33:18;;;;;;;;;2.00;2.00;;;;;;;;5147029;27;11440;-73
2022/04/24 14:56:24;;;;;;;;;8.00;7.00;;;;;;;;5157216;27;13403;-72
2022/04/24 14:58:49;;;;;;;;;1.25;1.25;;;;;;;;5168814;27;22391;-73
2022/04/24 15:01:14;;;;;;;;;1.00;1.00;;;;;;;;5176558;27;11429;-73
2022/04/24 15:03:40;;;;;;;;;0.00;0.00;;;;;;;;5178565;27;8912;-73
2022/04/24 15:06:05;;;;;;;;;0.00;0.00;;;;;;;;5178945;27;8796;-74
2022/04/24 15:08:31;;;;;;;;;0.50;0.00;;;;;;;;5179053;27;8776;-76
2022/04/24 15:10:56;;;;;;;;;1.00;1.00;;;;;;;;5175023;27;8796;-75
2022/04/24 15:13:21;;;;;;;;;0.00;0.00;;;;;;;;5178494;27;10233;-76
2022/04/24 15:15:47;;;;;;;;;1.50;0.00;;;;;;;;5158876;27;10143;-76
2022/04/24 15:18:12;;;;;;;;;0.00;0.00;;;;;;;;5178401;27;8834;-75